Nearby METAR Reports

This page may be slow to load as it queries the National Weather Service for data.

KBIS - Bismarck, North Dakota, USA
Distance from station: S 10mi, 15km
Updated: Thu, 18-Jul-2019 5:52pm CDT
Clear
Clear
 Wind from W
Wind: W 6 mph , 9 km/h
Temperature: 82°F , 28°C
Heat Index: 83°F , 28°C
Dew Point: 63°F , 17°C
Humidity: 51%
Barometer: 29.66 inHg , 1004.4 hPa
Clouds: Clear
Visibility: 10 miles , 16 km
2019/07/18 22:52 KBIS 182252Z 27005KT 10SM CLR 28/17 A2966 RMK AO2 SLP036 T02830167
KDIK - Dickinson, North Dakota, USA
Distance from station: W 95mi, 154km
Updated: Thu, 18-Jul-2019 5:56pm CDT
Partly cloudy
Partly cloudy
 Wind from SW
Wind: SW 8 mph , 13 km/h
Temperature: 82°F , 28°C
Heat Index: 81°F , 27°C
Dew Point: 55°F , 13°C
Humidity: 40%
Barometer: 29.68 inHg , 1005.1 hPa
Clouds: Partly cloudy
Visibility: 10 miles , 16 km
Cloud details: Few Clouds 7500 ft
Partly cloudy 12000 ft
2019/07/18 22:56 KDIK 182256Z AUTO 23007KT 10SM FEW075 SCT120 28/13 A2968 RMK AO2 SLP033 T02780128
 
KISN - Williston, North Dakota, USA
Distance from station: NNW 2mi, 2km
Updated: Thu, 18-Jul-2019 5:52pm CDT
Few Clouds
Few Clouds
 Wind from W
Wind: W 12 mph , 19 km/h, Gust: 22 mph , 35 km/h
Temperature: 84°F , 29°C
Dew Point: 50°F , 10°C
Humidity: 31%
Barometer: 29.62 inHg , 1003 hPa
Clouds: Few Clouds
Visibility: 10 miles , 16 km
Cloud details: Few Clouds 9500 ft
2019/07/18 22:52 KISN 182252Z AUTO 27010G19KT 10SM FEW095 29/10 A2962 RMK AO2 PK WND 29026/2218 SLP017 T02940100
KFAR - Fargo, North Dakota, USA
Distance from station: NNW 4mi, 7km
Updated: Thu, 18-Jul-2019 5:53pm CDT
Clear
Clear
 Wind from SW
Wind: SW 9 mph , 15 km/h
Temperature: 79°F , 26°C
Dew Point: 66°F , 19°C
Humidity: 65%
Barometer: 29.60 inHg , 1002.4 hPa
Clouds: Clear
Visibility: 10 miles , 16 km
2019/07/18 22:53 KFAR 182253Z 23008KT 10SM CLR 26/19 A2960 RMK AO2 SLP021 T02610189
 
KGFK - Grand Forks, North Dakota, USA
Distance from station: NNW 76mi, 123km
Updated: Thu, 18-Jul-2019 5:53pm CDT
Few Clouds
Few Clouds
 Wind from WSW
Wind: WSW 14 mph , 22 km/h, Gust: 22 mph , 35 km/h
Temperature: 86°F , 30°C
Heat Index: 86°F , 30°C
Dew Point: 61°F , 16°C
Humidity: 43%
Barometer: 29.55 inHg , 1000.7 hPa
Clouds: Few Clouds
Visibility: 10 miles , 16 km
Cloud details: Few Clouds 5500 ft
2019/07/18 22:53 KGFK 182253Z 25012G19KT 10SM FEW055 30/16 A2955 RMK AO2 SLP001 T03000161
KMOT - Minot, North Dakota, USA
Distance from station: E 109mi, 175km
Updated: Thu, 18-Jul-2019 5:54pm CDT
Clear
Clear
 Wind from SW
Wind: SW 14 mph , 22 km/h, Gust: 22 mph , 35 km/h
Temperature: 84°F , 29°C
Dew Point: 52°F , 11°C
Humidity: 33%
Barometer: 29.61 inHg , 1002.7 hPa
Clouds: Clear
Visibility: 10 miles , 16 km
2019/07/18 22:54 KMOT 182254Z 23012G19KT 10SM CLR 29/11 A2961 RMK AO2 SLP016 T02890111